White Point — IBAE — position and weather

sailwx.info

Track history (hours):
 
Tides and Currents Weather Stations Pressure Air Temp Water Temp Dewpoint Dewpoint Depression Visibility Wind Speed Wind Dir Waves Ship Positions

White Point

Last reported at 2016-Jun-29 17:11 UTC. Time now 2016-Jun-30 10:34 UTC.
Position N 42°46' E 015°13'.

Length 183 m; draft 1.1 m.

Type: Ship (hazmat cat D). MMSI: 247087400.

Date/timePositionNaut miles runAvg speedWind from/ knotsBaromVisibWave heightAir tempDewpointWater temp
2016-Jun-29 17:11N 42°46' E 015°13'914.3
2016-Jun-29 16:33N 42°53' E 015°05'1414.2
2016-Jun-29 15:33N 43°04' E 014°52'6014.1
2016-Jun-29 11:17N 43°49' E 013°57'1114.5
2016-Jun-29 10:33N 43°55' E 013°45'1514.8
2016-Jun-29 09:34N 44°03' E 013°28'1514.6
2016-Jun-29 08:33N 44°12' E 013°11'1414.3
2016-Jun-29 07:33N 44°20' E 012°55'1414.0
2016-Jun-29 06:34N 44°27' E 012°38'1313.4
2016-Jun-29 05:34N 44°30' E 012°19'5 4.4
2016-Jun-29 04:28N 44°26' E 012°15'0 0.0
2016-Jun-29 03:31N 44°26' E 012°15'0 0.0
2016-Jun-29 02:31N 44°26' E 012°15'0 0.0
2016-Jun-29 01:31N 44°26' E 012°15'0 0.0
2016-Jun-29 00:31N 44°26' E 012°15'0 0.0
2016-Jun-28 23:31N 44°26' E 012°15'0 0.0
2016-Jun-28 22:31N 44°26' E 012°15'0 0.0
2016-Jun-28 21:31N 44°26' E 012°15'0 0.0
2016-Jun-28 20:28N 44°26' E 012°15'0 0.0
2016-Jun-28 19:31N 44°26' E 012°15'0 0.0
2016-Jun-28 18:31N 44°26' E 012°15'0 0.0
2016-Jun-28 17:25N 44°26' E 012°15'  
2016-Jun-21 20:32N 43°30' E 014°04'1414.6
2016-Jun-21 19:33N 43°40' E 013°49'2814.2
2016-Jun-21 17:33N 43°57' E 013°17'1414.2
2016-Jun-21 16:33N 44°05' E 013°01'1413.9
2016-Jun-21 15:31N 44°17' E 012°50'1313.3
2016-Jun-21 14:33N 44°27' E 012°38'1513.0
2016-Jun-21 13:25N 44°30' E 012°18'2 0.1
2016-Jun-20 18:32N 44°30' E 012°21'9 9.0
2016-Jun-20 17:34N 44°31' E 012°34'1210.3
2016-Jun-20 16:26N 44°42' E 012°40'1214.3
2016-Jun-20 15:33N 44°54' E 012°47'1313.1
2016-Jun-20 14:34N 45°06' E 012°42'1313.2
2016-Jun-20 13:34N 45°15' E 012°28'1111.4
2016-Jun-20 12:33N 45°22' E 012°15'5 4.8
2016-Jun-20 11:29N 45°27' E 012°16'0 0.0
2016-Jun-20 10:32N 45°27' E 012°16'0 0.0
2016-Jun-20 09:32N 45°27' E 012°16'0 0.0
2016-Jun-20 08:29N 45°27' E 012°16'0 0.0
2016-Jun-20 07:32N 45°27' E 012°16'0 0.0
2016-Jun-20 06:32N 45°27' E 012°16'0 0.0
2016-Jun-20 05:29N 45°27' E 012°16'0 0.0
2016-Jun-20 04:29N 45°27' E 012°16'0 0.0
2016-Jun-20 03:32N 45°27' E 012°16'0 0.0
2016-Jun-20 02:32N 45°27' E 012°16'0 0.0
2016-Jun-20 01:32N 45°27' E 012°16'0 0.0
2016-Jun-20 00:32N 45°27' E 012°16'0 0.0
2016-Jun-19 23:32N 45°27' E 012°16'0 0.0
2016-Jun-19 22:29N 45°27' E 012°16'0 0.0
2016-Jun-19 21:32N 45°27' E 012°16'0 0.0
2016-Jun-19 20:32N 45°27' E 012°16'0 0.0
2016-Jun-19 19:32N 45°27' E 012°16'0 0.0
2016-Jun-19 18:32N 45°27' E 012°16'0 0.0
2016-Jun-19 17:32N 45°27' E 012°16'  
Track history (hours):
 
Tides and Currents Weather Stations Pressure Air Temp Water Temp Dewpoint Dewpoint Depression Visibility Wind Speed Wind Dir Waves Ship Positions

White Point

Last reported at 2016-Jun-29 17:11 UTC. Time now 2016-Jun-30 10:34 UTC.
Position N 42°46' E 015°13'.

Length 183 m; draft 1.1 m.

Type: Ship (hazmat cat D). MMSI: 247087400.

Date/timePositionNaut miles runAvg speedWind from/ knotsBaromVisibWave heightAir tempDewpointWater temp
2016-Jun-29 17:11N 42°46' E 015°13'914.3
2016-Jun-29 16:33N 42°53' E 015°05'1414.2
2016-Jun-29 15:33N 43°04' E 014°52'6014.1
2016-Jun-29 11:17N 43°49' E 013°57'1114.5
2016-Jun-29 10:33N 43°55' E 013°45'1514.8
2016-Jun-29 09:34N 44°03' E 013°28'1514.6
2016-Jun-29 08:33N 44°12' E 013°11'1414.3
2016-Jun-29 07:33N 44°20' E 012°55'1414.0
2016-Jun-29 06:34N 44°27' E 012°38'1313.4
2016-Jun-29 05:34N 44°30' E 012°19'5 4.4
2016-Jun-29 04:28N 44°26' E 012°15'0 0.0
2016-Jun-29 03:31N 44°26' E 012°15'0 0.0
2016-Jun-29 02:31N 44°26' E 012°15'0 0.0
2016-Jun-29 01:31N 44°26' E 012°15'0 0.0
2016-Jun-29 00:31N 44°26' E 012°15'0 0.0
2016-Jun-28 23:31N 44°26' E 012°15'0 0.0
2016-Jun-28 22:31N 44°26' E 012°15'0 0.0
2016-Jun-28 21:31N 44°26' E 012°15'0 0.0
2016-Jun-28 20:28N 44°26' E 012°15'0 0.0
2016-Jun-28 19:31N 44°26' E 012°15'0 0.0
2016-Jun-28 18:31N 44°26' E 012°15'0 0.0
2016-Jun-28 17:25N 44°26' E 012°15'  
2016-Jun-21 20:32N 43°30' E 014°04'1414.6
2016-Jun-21 19:33N 43°40' E 013°49'2814.2
2016-Jun-21 17:33N 43°57' E 013°17'1414.2
2016-Jun-21 16:33N 44°05' E 013°01'1413.9
2016-Jun-21 15:31N 44°17' E 012°50'1313.3
2016-Jun-21 14:33N 44°27' E 012°38'1513.0
2016-Jun-21 13:25N 44°30' E 012°18'2 0.1
2016-Jun-20 18:32N 44°30' E 012°21'9 9.0
2016-Jun-20 17:34N 44°31' E 012°34'1210.3
2016-Jun-20 16:26N 44°42' E 012°40'1214.3
2016-Jun-20 15:33N 44°54' E 012°47'1313.1
2016-Jun-20 14:34N 45°06' E 012°42'1313.2
2016-Jun-20 13:34N 45°15' E 012°28'1111.4
2016-Jun-20 12:33N 45°22' E 012°15'5 4.8
2016-Jun-20 11:29N 45°27' E 012°16'0 0.0
2016-Jun-20 10:32N 45°27' E 012°16'0 0.0
2016-Jun-20 09:32N 45°27' E 012°16'0 0.0
2016-Jun-20 08:29N 45°27' E 012°16'0 0.0
2016-Jun-20 07:32N 45°27' E 012°16'0 0.0
2016-Jun-20 06:32N 45°27' E 012°16'0 0.0
2016-Jun-20 05:29N 45°27' E 012°16'0 0.0
2016-Jun-20 04:29N 45°27' E 012°16'0 0.0
2016-Jun-20 03:32N 45°27' E 012°16'0 0.0
2016-Jun-20 02:32N 45°27' E 012°16'0 0.0
2016-Jun-20 01:32N 45°27' E 012°16'0 0.0
2016-Jun-20 00:32N 45°27' E 012°16'0 0.0
2016-Jun-19 23:32N 45°27' E 012°16'0 0.0
2016-Jun-19 22:29N 45°27' E 012°16'0 0.0
2016-Jun-19 21:32N 45°27' E 012°16'0 0.0
2016-Jun-19 20:32N 45°27' E 012°16'0 0.0
2016-Jun-19 19:32N 45°27' E 012°16'0 0.0
2016-Jun-19 18:32N 45°27' E 012°16'0 0.0
2016-Jun-19 17:32N 45°27' E 012°16'  

Dump ship's entire track history